sensor_id;sensor_type;location;lat;lon;timestamp;P1;durP1;ratioP1;P2;durP2;ratioP2
43118;SDS011;28729;49.838;8.650;2023-03-14T00:03:38;0.10;;;0.10;;
43118;SDS011;28729;49.838;8.650;2023-03-14T00:07:39;0.10;;;0.10;;
43118;SDS011;28729;49.838;8.650;2023-03-14T00:11:41;0.10;;;0.10;;
43118;SDS011;28729;49.838;8.650;2023-03-14T00:15:43;0.10;;;0.10;;
43118;SDS011;28729;49.838;8.650;2023-03-14T00:19:45;0.20;;;0.20;;
43118;SDS011;28729;49.838;8.650;2023-03-14T00:23:47;0.10;;;0.10;;
43118;SDS011;28729;49.838;8.650;2023-03-14T00:27:50;0.17;;;0.17;;
43118;SDS011;28729;49.838;8.650;2023-03-14T00:31:52;0.10;;;0.10;;
43118;SDS011;28729;49.838;8.650;2023-03-14T00:35:58;0.10;;;0.10;;
43118;SDS011;28729;49.838;8.650;2023-03-14T00:40:03;0.10;;;0.10;;
43118;SDS011;28729;49.838;8.650;2023-03-14T00:44:07;0.00;;;0.00;;
43118;SDS011;28729;49.838;8.650;2023-03-14T00:48:09;0.10;;;0.10;;
43118;SDS011;28729;49.838;8.650;2023-03-14T00:52:11;0.10;;;0.10;;
43118;SDS011;28729;49.838;8.650;2023-03-14T00:56:13;0.10;;;0.10;;
43118;SDS011;28729;49.838;8.650;2023-03-14T01:00:15;0.10;;;0.10;;
43118;SDS011;28729;49.838;8.650;2023-03-14T01:04:17;0.10;;;0.10;;
43118;SDS011;28729;49.838;8.650;2023-03-14T01:08:19;0.35;;;0.35;;
43118;SDS011;28729;49.838;8.650;2023-03-14T01:12:20;0.10;;;0.10;;
43118;SDS011;28729;49.838;8.650;2023-03-14T01:16:26;0.10;;;0.10;;
43118;SDS011;28729;49.838;8.650;2023-03-14T01:20:29;0.10;;;0.10;;
43118;SDS011;28729;49.838;8.650;2023-03-14T01:24:31;0.10;;;0.10;;
43118;SDS011;28729;49.838;8.650;2023-03-14T01:28:33;0.10;;;0.10;;
43118;SDS011;28729;49.838;8.650;2023-03-14T01:32:35;0.10;;;0.10;;
43118;SDS011;28729;49.838;8.650;2023-03-14T01:36:37;0.10;;;0.10;;
43118;SDS011;28729;49.838;8.650;2023-03-14T01:40:43;0.10;;;0.10;;
43118;SDS011;28729;49.838;8.650;2023-03-14T01:44:53;0.10;;;0.10;;
43118;SDS011;28729;49.838;8.650;2023-03-14T01:49:01;0.22;;;0.22;;
43118;SDS011;28729;49.838;8.650;2023-03-14T01:53:08;0.10;;;0.10;;
43118;SDS011;28729;49.838;8.650;2023-03-14T01:57:14;0.00;;;0.00;;
43118;SDS011;28729;49.838;8.650;2023-03-14T02:01:29;0.08;;;0.08;;
43118;SDS011;28729;49.838;8.650;2023-03-14T02:05:32;0.50;;;0.50;;
43118;SDS011;28729;49.838;8.650;2023-03-14T02:09:40;0.65;;;0.65;;
43118;SDS011;28729;49.838;8.650;2023-03-14T02:13:46;0.10;;;0.10;;
43118;SDS011;28729;49.838;8.650;2023-03-14T02:18:07;0.22;;;0.22;;
43118;SDS011;28729;49.838;8.650;2023-03-14T02:22:18;0.10;;;0.10;;
43118;SDS011;28729;49.838;8.650;2023-03-14T02:30:42;0.10;;;0.10;;
43118;SDS011;28729;49.838;8.650;2023-03-14T02:34:46;0.32;;;0.32;;
43118;SDS011;28729;49.838;8.650;2023-03-14T02:38:55;0.10;;;0.10;;
43118;SDS011;28729;49.838;8.650;2023-03-14T02:43:09;0.10;;;0.10;;
43118;SDS011;28729;49.838;8.650;2023-03-14T02:47:13;0.10;;;0.10;;
43118;SDS011;28729;49.838;8.650;2023-03-14T02:51:15;0.32;;;0.32;;
43118;SDS011;28729;49.838;8.650;2023-03-14T02:55:23;0.50;;;0.50;;
43118;SDS011;28729;49.838;8.650;2023-03-14T02:59:31;0.10;;;0.10;;
43118;SDS011;28729;49.838;8.650;2023-03-14T03:03:39;0.25;;;0.25;;
43118;SDS011;28729;49.838;8.650;2023-03-14T03:07:41;0.10;;;0.10;;
43118;SDS011;28729;49.838;8.650;2023-03-14T03:11:43;0.10;;;0.10;;
43118;SDS011;28729;49.838;8.650;2023-03-14T03:15:51;0.10;;;0.10;;
43118;SDS011;28729;49.838;8.650;2023-03-14T03:19:52;0.10;;;0.10;;
43118;SDS011;28729;49.838;8.650;2023-03-14T03:23:54;0.10;;;0.10;;
43118;SDS011;28729;49.838;8.650;2023-03-14T03:27:56;0.10;;;0.10;;
43118;SDS011;28729;49.838;8.650;2023-03-14T03:31:58;0.25;;;0.25;;
43118;SDS011;28729;49.838;8.650;2023-03-14T03:36:00;0.10;;;0.10;;
43118;SDS011;28729;49.838;8.650;2023-03-14T03:40:06;0.30;;;0.30;;
43118;SDS011;28729;49.838;8.650;2023-03-14T03:44:10;0.10;;;0.10;;
43118;SDS011;28729;49.838;8.650;2023-03-14T03:48:13;0.10;;;0.10;;
43118;SDS011;28729;49.838;8.650;2023-03-14T03:52:15;0.43;;;0.40;;
43118;SDS011;28729;49.838;8.650;2023-03-14T03:56:17;0.10;;;0.10;;
43118;SDS011;28729;49.838;8.650;2023-03-14T04:00:19;0.10;;;0.10;;
43118;SDS011;28729;49.838;8.650;2023-03-14T04:04:22;0.10;;;0.10;;
43118;SDS011;28729;49.838;8.650;2023-03-14T04:08:23;0.10;;;0.10;;
43118;SDS011;28729;49.838;8.650;2023-03-14T04:12:25;0.20;;;0.20;;
43118;SDS011;28729;49.838;8.650;2023-03-14T04:16:39;1.33;;;0.52;;
43118;SDS011;28729;49.838;8.650;2023-03-14T04:20:50;0.13;;;0.13;;
43118;SDS011;28729;49.838;8.650;2023-03-14T04:24:53;0.85;;;0.85;;
43118;SDS011;28729;49.838;8.650;2023-03-14T04:28:56;0.10;;;0.10;;
43118;SDS011;28729;49.838;8.650;2023-03-14T04:32:57;0.30;;;0.30;;
43118;SDS011;28729;49.838;8.650;2023-03-14T04:37:01;0.20;;;0.20;;
43118;SDS011;28729;49.838;8.650;2023-03-14T04:41:10;0.32;;;0.15;;
43118;SDS011;28729;49.838;8.650;2023-03-14T04:45:13;4.03;;;0.57;;
43118;SDS011;28729;49.838;8.650;2023-03-14T04:49:16;0.45;;;0.45;;
43118;SDS011;28729;49.838;8.650;2023-03-14T04:53:19;0.10;;;0.10;;
43118;SDS011;28729;49.838;8.650;2023-03-14T04:57:22;0.15;;;0.15;;
43118;SDS011;28729;49.838;8.650;2023-03-14T05:01:26;0.10;;;0.10;;
43118;SDS011;28729;49.838;8.650;2023-03-14T05:05:46;0.10;;;0.10;;
43118;SDS011;28729;49.838;8.650;2023-03-14T05:10:11;0.10;;;0.10;;
43118;SDS011;28729;49.838;8.650;2023-03-14T05:14:28;0.10;;;0.10;;
43118;SDS011;28729;49.838;8.650;2023-03-14T05:18:41;0.10;;;0.10;;
43118;SDS011;28729;49.838;8.650;2023-03-14T05:23:01;0.00;;;0.00;;
43118;SDS011;28729;49.838;8.650;2023-03-14T05:27:21;0.10;;;0.10;;
43118;SDS011;28729;49.838;8.650;2023-03-14T05:36:02;0.00;;;0.00;;
43118;SDS011;28729;49.838;8.650;2023-03-14T05:40:15;0.10;;;0.10;;
43118;SDS011;28729;49.838;8.650;2023-03-14T05:44:38;0.10;;;0.10;;
43118;SDS011;28729;49.838;8.650;2023-03-14T05:48:54;0.10;;;0.10;;
43118;SDS011;28729;49.838;8.650;2023-03-14T05:53:22;0.20;;;0.20;;
43118;SDS011;28729;49.838;8.650;2023-03-14T05:57:46;0.10;;;0.10;;
43118;SDS011;28729;49.838;8.650;2023-03-14T06:02:03;0.10;;;0.10;;
43118;SDS011;28729;49.838;8.650;2023-03-14T06:06:17;0.10;;;0.10;;
43118;SDS011;28729;49.838;8.650;2023-03-14T06:10:20;0.10;;;0.10;;
43118;SDS011;28729;49.838;8.650;2023-03-14T06:14:22;0.10;;;0.10;;
43118;SDS011;28729;49.838;8.650;2023-03-14T06:18:26;0.10;;;0.10;;
43118;SDS011;28729;49.838;8.650;2023-03-14T06:22:29;0.30;;;0.30;;
43118;SDS011;28729;49.838;8.650;2023-03-14T06:26:31;0.17;;;0.17;;
43118;SDS011;28729;49.838;8.650;2023-03-14T06:34:36;0.10;;;0.10;;
43118;SDS011;28729;49.838;8.650;2023-03-14T06:38:40;0.10;;;0.10;;
43118;SDS011;28729;49.838;8.650;2023-03-14T06:42:42;0.10;;;0.10;;
43118;SDS011;28729;49.838;8.650;2023-03-14T06:46:47;0.10;;;0.10;;
43118;SDS011;28729;49.838;8.650;2023-03-14T06:50:50;0.10;;;0.10;;
43118;SDS011;28729;49.838;8.650;2023-03-14T06:54:52;0.17;;;0.17;;
43118;SDS011;28729;49.838;8.650;2023-03-14T06:58:56;0.10;;;0.10;;
43118;SDS011;28729;49.838;8.650;2023-03-14T07:03:02;0.68;;;0.68;;
43118;SDS011;28729;49.838;8.650;2023-03-14T07:07:08;0.10;;;0.10;;
43118;SDS011;28729;49.838;8.650;2023-03-14T07:11:12;0.10;;;0.10;;
43118;SDS011;28729;49.838;8.650;2023-03-14T07:15:15;0.10;;;0.10;;
43118;SDS011;28729;49.838;8.650;2023-03-14T07:19:41;0.10;;;0.10;;
43118;SDS011;28729;49.838;8.650;2023-03-14T07:23:43;0.10;;;0.10;;
43118;SDS011;28729;49.838;8.650;2023-03-14T07:27:48;0.10;;;0.10;;
43118;SDS011;28729;49.838;8.650;2023-03-14T07:31:51;0.13;;;0.13;;
43118;SDS011;28729;49.838;8.650;2023-03-14T07:35:54;0.80;;;0.80;;
43118;SDS011;28729;49.838;8.650;2023-03-14T07:39:57;5.63;;;0.65;;
43118;SDS011;28729;49.838;8.650;2023-03-14T07:44:03;0.10;;;0.10;;
43118;SDS011;28729;49.838;8.650;2023-03-14T07:48:05;0.10;;;0.10;;
43118;SDS011;28729;49.838;8.650;2023-03-14T07:52:08;0.10;;;0.10;;
43118;SDS011;28729;49.838;8.650;2023-03-14T07:56:10;0.13;;;0.13;;
43118;SDS011;28729;49.838;8.650;2023-03-14T08:00:12;0.10;;;0.10;;
43118;SDS011;28729;49.838;8.650;2023-03-14T08:04:16;0.10;;;0.10;;
43118;SDS011;28729;49.838;8.650;2023-03-14T08:08:19;0.10;;;0.10;;
43118;SDS011;28729;49.838;8.650;2023-03-14T08:12:22;0.10;;;0.10;;
43118;SDS011;28729;49.838;8.650;2023-03-14T08:16:23;0.10;;;0.10;;
43118;SDS011;28729;49.838;8.650;2023-03-14T08:20:26;0.10;;;0.10;;
43118;SDS011;28729;49.838;8.650;2023-03-14T08:24:33;0.10;;;0.10;;
43118;SDS011;28729;49.838;8.650;2023-03-14T08:28:35;0.10;;;0.10;;
43118;SDS011;28729;49.838;8.650;2023-03-14T08:32:38;0.10;;;0.10;;
43118;SDS011;28729;49.838;8.650;2023-03-14T08:36:41;0.10;;;0.10;;
43118;SDS011;28729;49.838;8.650;2023-03-14T08:40:44;0.10;;;0.10;;
43118;SDS011;28729;49.838;8.650;2023-03-14T08:44:46;0.10;;;0.10;;
43118;SDS011;28729;49.838;8.650;2023-03-14T08:48:48;1.40;;;1.30;;
43118;SDS011;28729;49.838;8.650;2023-03-14T08:52:50;0.10;;;0.10;;
43118;SDS011;28729;49.838;8.650;2023-03-14T08:56:52;0.10;;;0.10;;
43118;SDS011;28729;49.838;8.650;2023-03-14T09:00:53;0.10;;;0.10;;
43118;SDS011;28729;49.838;8.650;2023-03-14T09:04:55;0.10;;;0.10;;
43118;SDS011;28729;49.838;8.650;2023-03-14T09:08:58;0.10;;;0.10;;
43118;SDS011;28729;49.838;8.650;2023-03-14T09:12:59;0.10;;;0.10;;
43118;SDS011;28729;49.838;8.650;2023-03-14T09:17:02;0.10;;;0.10;;
43118;SDS011;28729;49.838;8.650;2023-03-14T09:21:06;0.10;;;0.10;;
43118;SDS011;28729;49.838;8.650;2023-03-14T09:25:09;0.10;;;0.10;;
43118;SDS011;28729;49.838;8.650;2023-03-14T09:29:12;0.10;;;0.10;;
43118;SDS011;28729;49.838;8.650;2023-03-14T09:33:16;0.10;;;0.10;;
43118;SDS011;28729;49.838;8.650;2023-03-14T09:37:21;0.45;;;0.30;;
43118;SDS011;28729;49.838;8.650;2023-03-14T09:45:36;0.10;;;0.10;;
43118;SDS011;28729;49.838;8.650;2023-03-14T09:49:41;0.10;;;0.10;;
43118;SDS011;28729;49.838;8.650;2023-03-14T09:53:46;0.10;;;0.10;;
43118;SDS011;28729;49.838;8.650;2023-03-14T09:57:51;0.10;;;0.10;;
43118;SDS011;28729;49.838;8.650;2023-03-14T10:02:14;0.10;;;0.10;;
43118;SDS011;28729;49.838;8.650;2023-03-14T10:06:26;0.10;;;0.10;;
43118;SDS011;28729;49.838;8.650;2023-03-14T10:10:33;0.10;;;0.10;;
43118;SDS011;28729;49.838;8.650;2023-03-14T10:14:44;0.10;;;0.10;;
43118;SDS011;28729;49.838;8.650;2023-03-14T10:22:53;0.08;;;0.08;;
43118;SDS011;28729;49.838;8.650;2023-03-14T10:27:01;0.10;;;0.10;;
43118;SDS011;28729;49.838;8.650;2023-03-14T10:31:09;0.10;;;0.10;;
43118;SDS011;28729;49.838;8.650;2023-03-14T10:43:33;0.10;;;0.10;;
43118;SDS011;28729;49.838;8.650;2023-03-14T10:47:38;0.10;;;0.10;;
43118;SDS011;28729;49.838;8.650;2023-03-14T10:51:50;0.10;;;0.10;;
43118;SDS011;28729;49.838;8.650;2023-03-14T10:55:52;0.10;;;0.10;;
43118;SDS011;28729;49.838;8.650;2023-03-14T10:59:55;0.10;;;0.10;;
43118;SDS011;28729;49.838;8.650;2023-03-14T11:04:02;0.10;;;0.10;;
43118;SDS011;28729;49.838;8.650;2023-03-14T11:08:31;0.00;;;0.00;;
43118;SDS011;28729;49.838;8.650;2023-03-14T11:12:40;0.10;;;0.10;;
43118;SDS011;28729;49.838;8.650;2023-03-14T11:17:15;0.30;;;0.30;;
43118;SDS011;28729;49.838;8.650;2023-03-14T11:21:35;1.65;;;0.32;;
43118;SDS011;28729;49.838;8.650;2023-03-14T11:34:20;1.10;;;0.40;;
43118;SDS011;28729;49.838;8.650;2023-03-14T11:47:26;3.00;;;0.40;;
43118;SDS011;28729;49.838;8.650;2023-03-14T11:51:35;1.33;;;0.30;;
43118;SDS011;28729;49.838;8.650;2023-03-14T11:55:40;1.92;;;0.50;;
43118;SDS011;28729;49.838;8.650;2023-03-14T11:59:47;2.72;;;0.50;;
43118;SDS011;28729;49.838;8.650;2023-03-14T12:04:25;0.60;;;0.40;;
43118;SDS011;28729;49.838;8.650;2023-03-14T12:12:59;1.00;;;0.70;;
43118;SDS011;28729;49.838;8.650;2023-03-14T12:21:42;0.40;;;0.28;;
43118;SDS011;28729;49.838;8.650;2023-03-14T12:26:06;0.20;;;0.20;;
43118;SDS011;28729;49.838;8.650;2023-03-14T12:30:17;0.22;;;0.15;;
43118;SDS011;28729;49.838;8.650;2023-03-14T12:34:44;2.08;;;0.20;;
43118;SDS011;28729;49.838;8.650;2023-03-14T12:38:57;0.15;;;0.15;;
43118;SDS011;28729;49.838;8.650;2023-03-14T12:43:27;1.00;;;0.20;;
43118;SDS011;28729;49.838;8.650;2023-03-14T12:51:36;0.10;;;0.10;;
43118;SDS011;28729;49.838;8.650;2023-03-14T12:55:46;0.20;;;0.20;;
43118;SDS011;28729;49.838;8.650;2023-03-14T12:59:58;0.10;;;0.10;;
43118;SDS011;28729;49.838;8.650;2023-03-14T13:04:08;0.17;;;0.17;;
43118;SDS011;28729;49.838;8.650;2023-03-14T13:08:15;0.20;;;0.20;;
43118;SDS011;28729;49.838;8.650;2023-03-14T13:12:51;0.20;;;0.20;;
43118;SDS011;28729;49.838;8.650;2023-03-14T13:17:00;0.17;;;0.17;;
43118;SDS011;28729;49.838;8.650;2023-03-14T13:21:22;0.20;;;0.20;;
43118;SDS011;28729;49.838;8.650;2023-03-14T13:25:29;0.20;;;0.20;;
43118;SDS011;28729;49.838;8.650;2023-03-14T13:29:33;1.23;;;0.25;;
43118;SDS011;28729;49.838;8.650;2023-03-14T13:33:38;1.00;;;1.00;;
43118;SDS011;28729;49.838;8.650;2023-03-14T13:37:43;0.45;;;0.30;;
43118;SDS011;28729;49.838;8.650;2023-03-14T13:41:45;0.90;;;0.50;;
43118;SDS011;28729;49.838;8.650;2023-03-14T13:49:52;1.13;;;0.50;;
43118;SDS011;28729;49.838;8.650;2023-03-14T13:53:55;0.50;;;0.40;;
43118;SDS011;28729;49.838;8.650;2023-03-14T13:57:58;1.70;;;0.55;;
43118;SDS011;28729;49.838;8.650;2023-03-14T14:02:04;2.33;;;0.43;;
43118;SDS011;28729;49.838;8.650;2023-03-14T14:06:23;0.93;;;0.65;;
43118;SDS011;28729;49.838;8.650;2023-03-14T14:10:30;1.65;;;0.60;;
43118;SDS011;28729;49.838;8.650;2023-03-14T14:14:35;0.93;;;0.43;;
43118;SDS011;28729;49.838;8.650;2023-03-14T14:18:41;1.48;;;0.55;;
43118;SDS011;28729;49.838;8.650;2023-03-14T14:22:43;0.77;;;0.47;;
43118;SDS011;28729;49.838;8.650;2023-03-14T14:26:53;0.93;;;0.38;;
43118;SDS011;28729;49.838;8.650;2023-03-14T14:35:01;1.10;;;0.50;;
43118;SDS011;28729;49.838;8.650;2023-03-14T14:39:05;1.13;;;0.40;;
43118;SDS011;28729;49.838;8.650;2023-03-14T14:43:26;0.63;;;0.45;;
43118;SDS011;28729;49.838;8.650;2023-03-14T14:51:33;1.30;;;0.75;;
43118;SDS011;28729;49.838;8.650;2023-03-14T14:55:41;1.10;;;0.65;;
43118;SDS011;28729;49.838;8.650;2023-03-14T14:59:43;0.50;;;0.50;;
43118;SDS011;28729;49.838;8.650;2023-03-14T15:03:47;0.93;;;0.50;;
43118;SDS011;28729;49.838;8.650;2023-03-14T15:07:51;0.52;;;0.40;;
43118;SDS011;28729;49.838;8.650;2023-03-14T15:11:54;1.13;;;0.60;;
43118;SDS011;28729;49.838;8.650;2023-03-14T15:15:55;3.35;;;0.57;;
43118;SDS011;28729;49.838;8.650;2023-03-14T15:19:58;2.42;;;0.60;;
43118;SDS011;28729;49.838;8.650;2023-03-14T15:23:59;1.42;;;0.60;;
43118;SDS011;28729;49.838;8.650;2023-03-14T15:28:01;3.25;;;0.70;;
43118;SDS011;28729;49.838;8.650;2023-03-14T15:32:05;1.25;;;0.50;;
43118;SDS011;28729;49.838;8.650;2023-03-14T15:40:25;0.98;;;0.50;;
43118;SDS011;28729;49.838;8.650;2023-03-14T15:44:30;0.85;;;0.40;;
43118;SDS011;28729;49.838;8.650;2023-03-14T15:48:33;2.40;;;0.70;;
43118;SDS011;28729;49.838;8.650;2023-03-14T15:52:34;1.77;;;0.40;;
43118;SDS011;28729;49.838;8.650;2023-03-14T15:56:37;3.92;;;1.42;;
43118;SDS011;28729;49.838;8.650;2023-03-14T16:00:41;2.63;;;0.80;;
43118;SDS011;28729;49.838;8.650;2023-03-14T16:04:44;1.08;;;0.40;;
43118;SDS011;28729;49.838;8.650;2023-03-14T16:08:46;4.10;;;0.60;;
43118;SDS011;28729;49.838;8.650;2023-03-14T16:12:47;3.70;;;0.60;;
43118;SDS011;28729;49.838;8.650;2023-03-14T16:16:49;0.93;;;0.68;;
43118;SDS011;28729;49.838;8.650;2023-03-14T16:20:59;0.65;;;0.45;;
43118;SDS011;28729;49.838;8.650;2023-03-14T16:25:03;1.08;;;0.65;;
43118;SDS011;28729;49.838;8.650;2023-03-14T16:29:08;0.77;;;0.40;;
43118;SDS011;28729;49.838;8.650;2023-03-14T16:33:09;1.73;;;0.68;;
43118;SDS011;28729;49.838;8.650;2023-03-14T16:37:15;1.23;;;0.68;;
43118;SDS011;28729;49.838;8.650;2023-03-14T16:41:17;1.67;;;0.80;;
43118;SDS011;28729;49.838;8.650;2023-03-14T16:45:21;1.40;;;0.60;;
43118;SDS011;28729;49.838;8.650;2023-03-14T16:49:22;2.13;;;1.08;;
43118;SDS011;28729;49.838;8.650;2023-03-14T16:53:25;1.65;;;0.88;;
43118;SDS011;28729;49.838;8.650;2023-03-14T16:57:29;2.42;;;0.80;;
43118;SDS011;28729;49.838;8.650;2023-03-14T17:01:31;1.17;;;0.60;;
43118;SDS011;28729;49.838;8.650;2023-03-14T17:05:32;2.47;;;0.60;;
43118;SDS011;28729;49.838;8.650;2023-03-14T17:09:34;1.75;;;0.68;;
43118;SDS011;28729;49.838;8.650;2023-03-14T17:13:36;1.30;;;0.80;;
43118;SDS011;28729;49.838;8.650;2023-03-14T17:17:39;2.00;;;0.80;;
43118;SDS011;28729;49.838;8.650;2023-03-14T17:21:40;2.45;;;0.82;;
43118;SDS011;28729;49.838;8.650;2023-03-14T17:25:42;2.60;;;1.20;;
43118;SDS011;28729;49.838;8.650;2023-03-14T17:29:46;3.28;;;0.85;;
43118;SDS011;28729;49.838;8.650;2023-03-14T17:33:49;1.80;;;0.70;;
43118;SDS011;28729;49.838;8.650;2023-03-14T17:37:55;0.88;;;0.60;;
43118;SDS011;28729;49.838;8.650;2023-03-14T17:41:57;1.27;;;0.50;;
43118;SDS011;28729;49.838;8.650;2023-03-14T17:45:59;0.88;;;0.50;;
43118;SDS011;28729;49.838;8.650;2023-03-14T17:50:02;0.57;;;0.40;;
43118;SDS011;28729;49.838;8.650;2023-03-14T17:54:06;1.70;;;0.25;;
43118;SDS011;28729;49.838;8.650;2023-03-14T17:58:08;1.20;;;0.40;;
43118;SDS011;28729;49.838;8.650;2023-03-14T18:02:22;0.52;;;0.52;;
43118;SDS011;28729;49.838;8.650;2023-03-14T18:06:26;0.55;;;0.40;;
43118;SDS011;28729;49.838;8.650;2023-03-14T18:10:30;0.50;;;0.40;;
43118;SDS011;28729;49.838;8.650;2023-03-14T18:14:32;0.38;;;0.22;;
43118;SDS011;28729;49.838;8.650;2023-03-14T18:18:34;0.60;;;0.45;;
43118;SDS011;28729;49.838;8.650;2023-03-14T18:22:36;1.27;;;0.52;;
43118;SDS011;28729;49.838;8.650;2023-03-14T18:26:37;0.30;;;0.30;;
43118;SDS011;28729;49.838;8.650;2023-03-14T18:30:39;0.50;;;0.50;;
43118;SDS011;28729;49.838;8.650;2023-03-14T18:34:41;2.72;;;0.28;;
43118;SDS011;28729;49.838;8.650;2023-03-14T18:38:44;0.57;;;0.40;;
43118;SDS011;28729;49.838;8.650;2023-03-14T18:42:46;0.43;;;0.30;;
43118;SDS011;28729;49.838;8.650;2023-03-14T18:46:48;1.17;;;0.60;;
43118;SDS011;28729;49.838;8.650;2023-03-14T18:50:50;3.83;;;1.05;;
43118;SDS011;28729;49.838;8.650;2023-03-14T18:54:52;4.18;;;1.15;;
43118;SDS011;28729;49.838;8.650;2023-03-14T18:58:58;2.88;;;1.08;;
43118;SDS011;28729;49.838;8.650;2023-03-14T19:03:03;3.08;;;1.85;;
43118;SDS011;28729;49.838;8.650;2023-03-14T19:07:04;4.05;;;1.30;;
43118;SDS011;28729;49.838;8.650;2023-03-14T19:11:08;3.58;;;1.70;;
43118;SDS011;28729;49.838;8.650;2023-03-14T19:15:12;4.00;;;1.70;;
43118;SDS011;28729;49.838;8.650;2023-03-14T19:19:14;4.63;;;1.50;;
43118;SDS011;28729;49.838;8.650;2023-03-14T19:23:17;8.45;;;1.63;;
43118;SDS011;28729;49.838;8.650;2023-03-14T19:27:19;6.95;;;1.63;;
43118;SDS011;28729;49.838;8.650;2023-03-14T19:31:24;5.63;;;1.60;;
43118;SDS011;28729;49.838;8.650;2023-03-14T19:35:27;6.60;;;2.78;;
43118;SDS011;28729;49.838;8.650;2023-03-14T19:39:30;4.65;;;1.65;;
43118;SDS011;28729;49.838;8.650;2023-03-14T19:43:32;10.33;;;2.00;;
43118;SDS011;28729;49.838;8.650;2023-03-14T19:47:35;4.57;;;2.03;;
43118;SDS011;28729;49.838;8.650;2023-03-14T19:51:37;9.95;;;2.38;;
43118;SDS011;28729;49.838;8.650;2023-03-14T19:55:40;7.72;;;2.60;;
43118;SDS011;28729;49.838;8.650;2023-03-14T19:59:47;5.43;;;2.08;;
43118;SDS011;28729;49.838;8.650;2023-03-14T20:03:49;8.85;;;2.40;;
43118;SDS011;28729;49.838;8.650;2023-03-14T20:07:50;8.15;;;2.40;;
43118;SDS011;28729;49.838;8.650;2023-03-14T20:11:53;3.28;;;1.83;;
43118;SDS011;28729;49.838;8.650;2023-03-14T20:15:55;9.32;;;2.58;;
43118;SDS011;28729;49.838;8.650;2023-03-14T20:19:58;5.82;;;2.22;;
43118;SDS011;28729;49.838;8.650;2023-03-14T20:24:01;6.90;;;1.67;;
43118;SDS011;28729;49.838;8.650;2023-03-14T20:28:03;3.80;;;1.63;;
43118;SDS011;28729;49.838;8.650;2023-03-14T20:32:05;8.60;;;2.00;;
43118;SDS011;28729;49.838;8.650;2023-03-14T20:36:09;10.05;;;1.88;;
43118;SDS011;28729;49.838;8.650;2023-03-14T20:40:12;6.22;;;2.45;;
43118;SDS011;28729;49.838;8.650;2023-03-14T20:44:15;3.67;;;1.60;;
43118;SDS011;28729;49.838;8.650;2023-03-14T20:48:17;4.25;;;1.55;;
43118;SDS011;28729;49.838;8.650;2023-03-14T20:52:18;6.15;;;1.63;;
43118;SDS011;28729;49.838;8.650;2023-03-14T20:56:20;7.47;;;1.92;;
43118;SDS011;28729;49.838;8.650;2023-03-14T21:00:22;9.48;;;1.88;;
43118;SDS011;28729;49.838;8.650;2023-03-14T21:04:24;5.65;;;1.75;;
43118;SDS011;28729;49.838;8.650;2023-03-14T21:08:26;4.80;;;1.73;;
43118;SDS011;28729;49.838;8.650;2023-03-14T21:12:28;4.22;;;1.60;;
43118;SDS011;28729;49.838;8.650;2023-03-14T21:16:29;8.30;;;1.67;;
43118;SDS011;28729;49.838;8.650;2023-03-14T21:20:32;3.97;;;1.67;;
43118;SDS011;28729;49.838;8.650;2023-03-14T21:24:35;4.28;;;1.73;;
43118;SDS011;28729;49.838;8.650;2023-03-14T21:28:36;9.07;;;2.25;;
43118;SDS011;28729;49.838;8.650;2023-03-14T21:32:38;8.73;;;1.85;;
43118;SDS011;28729;49.838;8.650;2023-03-14T21:36:40;4.22;;;1.50;;
43118;SDS011;28729;49.838;8.650;2023-03-14T21:40:42;7.40;;;2.57;;
43118;SDS011;28729;49.838;8.650;2023-03-14T21:44:43;5.25;;;1.85;;
43118;SDS011;28729;49.838;8.650;2023-03-14T21:48:48;9.43;;;1.98;;
43118;SDS011;28729;49.838;8.650;2023-03-14T21:52:50;4.88;;;2.33;;
43118;SDS011;28729;49.838;8.650;2023-03-14T21:56:59;6.90;;;2.35;;
43118;SDS011;28729;49.838;8.650;2023-03-14T22:01:03;15.70;;;4.07;;
43118;SDS011;28729;49.838;8.650;2023-03-14T22:05:11;8.88;;;2.38;;
43118;SDS011;28729;49.838;8.650;2023-03-14T22:09:14;5.72;;;1.88;;
43118;SDS011;28729;49.838;8.650;2023-03-14T22:13:16;6.85;;;3.53;;
43118;SDS011;28729;49.838;8.650;2023-03-14T22:21:21;4.85;;;1.85;;
43118;SDS011;28729;49.838;8.650;2023-03-14T22:25:23;7.15;;;1.50;;
43118;SDS011;28729;49.838;8.650;2023-03-14T22:29:24;7.28;;;2.05;;
43118;SDS011;28729;49.838;8.650;2023-03-14T22:33:26;3.85;;;1.38;;
43118;SDS011;28729;49.838;8.650;2023-03-14T22:37:27;4.82;;;1.73;;
43118;SDS011;28729;49.838;8.650;2023-03-14T22:41:29;6.88;;;1.58;;
43118;SDS011;28729;49.838;8.650;2023-03-14T22:45:30;2.92;;;1.23;;
43118;SDS011;28729;49.838;8.650;2023-03-14T22:49:33;2.72;;;1.10;;
43118;SDS011;28729;49.838;8.650;2023-03-14T22:53:35;4.85;;;1.10;;
43118;SDS011;28729;49.838;8.650;2023-03-14T22:57:37;4.20;;;1.27;;
43118;SDS011;28729;49.838;8.650;2023-03-14T23:01:41;5.97;;;1.23;;
43118;SDS011;28729;49.838;8.650;2023-03-14T23:05:43;3.42;;;1.40;;
43118;SDS011;28729;49.838;8.650;2023-03-14T23:09:44;5.05;;;1.00;;
43118;SDS011;28729;49.838;8.650;2023-03-14T23:13:46;4.38;;;1.20;;
43118;SDS011;28729;49.838;8.650;2023-03-14T23:17:48;5.07;;;1.08;;
43118;SDS011;28729;49.838;8.650;2023-03-14T23:21:51;3.92;;;1.27;;
43118;SDS011;28729;49.838;8.650;2023-03-14T23:25:53;6.30;;;1.98;;
43118;SDS011;28729;49.838;8.650;2023-03-14T23:29:55;5.65;;;1.42;;
43118;SDS011;28729;49.838;8.650;2023-03-14T23:33:56;5.60;;;1.35;;
43118;SDS011;28729;49.838;8.650;2023-03-14T23:37:58;6.32;;;1.50;;
43118;SDS011;28729;49.838;8.650;2023-03-14T23:42:00;5.13;;;1.17;;
43118;SDS011;28729;49.838;8.650;2023-03-14T23:46:01;7.57;;;1.40;;
43118;SDS011;28729;49.838;8.650;2023-03-14T23:50:03;5.97;;;1.42;;
43118;SDS011;28729;49.838;8.650;2023-03-14T23:54:05;4.00;;;1.58;;
43118;SDS011;28729;49.838;8.650;2023-03-14T23:58:06;5.90;;;1.67;;
